Sevier River / Vermillion Canal




Date Battery Voltage (V) Canal Stage above Flume (ft) Canal Stage below Flume (ft) Canal Flow (cfs) Canal Gate Height (%) River Stage at Dam (ft) River Flow at Dam (cfs) Pond Stage at Gate (ft) Canal Stage Offset (ft) River Stage below Dam (ft) River Flow below Dam (cfs) Submergence Mossing CFS Set (cfs) Gate Set (%) Auto CFS Auto Gate Gate Warning Settle Count Gate Up Total Gate Down Total
06/01/2019 13.02 1.05 -0.36 34.8 1.46 270 2.22 343
06/02/2019 13.05 1.05 -0.35 34.8 1.47 275 2.27 355
06/03/2019 12.90 1.06 -0.30 35.2 1.29 229 2.47 405
06/04/2019 12.97 1.06 -0.29 34.9 0.93 137 2.70 461
06/05/2019 12.99 1.06 -0.28 35.3 1.06 167 2.75 473
06/06/2019 13.02 1.05 -0.32 34.8 1.21 206 2.92 519
06/07/2019 13.01 1.03 0.12 33.7 1.44 267 3.10 566
06/08/2019 13.12 0.90 0.43 27.3 1.20 206 3.39 648
06/09/2019 13.06 0.87 0.12 25.8 0.95 150 3.67 730
06/10/2019 12.99 0.86 0.15 25.3 0.14 16 3.92 806
06/11/2019 13.02 0.82 0.18 23.4 0.03 1 4.03 839
06/12/2019 12.96 0.84 0.19 24.0 0.06 3 4.04 842
06/13/2019 12.91 0.84 0.17 24.1 0.09 5 4.05 846
06/14/2019 12.96 0.84 0.17 24.0 0.12 7 4.07 851
06/15/2019 12.97 0.88 0.26 26.3 0.22 16 4.13 871
06/16/2019 12.97 0.88 0.35 26.0 0.20 14 4.11 864
06/17/2019 12.84 0.88 0.05 26.3 -0.29 0 3.52 687
06/18/2019 12.95 0.96 -0.02 30.1 -0.61 0 3.12 572
06/19/2019 13.01 1.05 0.02 34.5 -0.54 0 3.18 588
06/20/2019 12.99 1.12 0.08 38.4 -0.45 0 3.23 604
06/21/2019 13.08 1.11 0.09 38.0 -0.25 0 3.40 651
06/22/2019 13.07 1.11 0.10 38.0 -0.12 0 3.52 686
06/23/2019 12.98 1.09 0.05 37.0 -0.39 0 3.30 624
06/24/2019 12.93 1.02 -0.03 33.0 -0.67 0 2.65 451
06/25/2019 12.89 1.06 -0.03 35.1 -1.05 0 1.92 277
06/26/2019 12.96 1.03 -0.02 33.9 -0.56 55 1.61 212
06/27/2019 12.97 1.10 -0.01 37.1 0.74 98 1.39 170
06/28/2019 12.96 1.09 -0.09 36.7 0.29 25 0.79 74
06/29/2019 12.87 1.10 -0.17 37.2 0.16 11 0.39 29
06/30/2019 12.69 1.10 -0.18 37.1 0.30 25 0.32 19
Average 32.1 73 535 0.00
Maximum 38.4 275 871
Minimum 23.4 0 19
Total Volume (AF) 1,907.8 4,329 31,853 0.00